createdAt,value
2019-03-06T00:01:52.385Z,5.24
2019-03-06T00:07:11.025Z,5.40
2019-03-06T00:12:30.175Z,5.55
2019-03-06T00:17:48.810Z,5.70
2019-03-06T00:23:08.383Z,5.73
2019-03-06T00:28:27.007Z,5.71
2019-03-06T00:33:45.913Z,5.75
2019-03-06T00:39:07.365Z,5.81
2019-03-06T00:44:26.073Z,5.90
2019-03-06T00:49:44.623Z,5.96
2019-03-06T00:55:03.343Z,5.99
2019-03-06T01:00:24.602Z,5.96
2019-03-06T01:05:43.217Z,5.94
2019-03-06T01:11:01.772Z,5.86
2019-03-06T01:16:20.385Z,5.84
2019-03-06T01:21:39.012Z,5.78
2019-03-06T01:26:57.575Z,5.74
2019-03-06T01:32:16.529Z,5.70
2019-03-06T01:37:36.900Z,5.69
2019-03-06T01:42:59.869Z,5.66
2019-03-06T01:48:18.482Z,5.78
2019-03-06T01:53:37.132Z,5.82
2019-03-06T01:58:55.798Z,5.92
2019-03-06T02:04:14.763Z,5.93
2019-03-06T02:09:34.091Z,5.94
2019-03-06T02:14:52.637Z,5.90
2019-03-06T02:20:16.129Z,5.95
2019-03-06T02:25:34.746Z,6.02
2019-03-06T02:30:53.363Z,6.09
2019-03-06T02:36:12.250Z,6.09
2019-03-06T02:41:30.857Z,6.16
2019-03-06T02:46:49.747Z,6.27
2019-03-06T02:52:08.538Z,6.23
2019-03-06T02:57:27.324Z,6.20
2019-03-06T03:02:47.440Z,6.16
2019-03-06T03:08:06.173Z,6.13
2019-03-06T03:13:24.994Z,6.09
2019-03-06T03:18:43.601Z,6.14
2019-03-06T03:24:02.068Z,6.21
2019-03-06T03:29:20.643Z,6.30
2019-03-06T03:34:39.244Z,6.24
2019-03-06T03:39:57.737Z,6.21
2019-03-06T03:45:17.138Z,6.06
2019-03-06T03:50:35.678Z,5.91
2019-03-06T03:55:54.249Z,6.01
2019-03-06T04:01:13.290Z,6.12
2019-03-06T04:06:31.853Z,6.24
2019-03-06T04:11:50.390Z,6.30
2019-03-06T04:17:08.933Z,6.36
2019-03-06T04:22:27.832Z,6.48
2019-03-06T04:27:46.395Z,6.59
2019-03-06T04:33:05.003Z,6.55
2019-03-06T04:38:23.475Z,6.60
2019-03-06T04:43:43.508Z,6.65
2019-03-06T04:49:02.049Z,6.65
2019-03-06T04:54:20.590Z,6.76
2019-03-06T04:59:39.157Z,6.60
2019-03-06T05:04:57.747Z,6.50
2019-03-06T05:10:16.442Z,6.48
2019-03-06T05:15:35.067Z,6.57
2019-03-06T05:20:53.636Z,6.53
2019-03-06T05:26:12.105Z,6.59
2019-03-06T05:31:30.725Z,6.42
2019-03-06T05:37:17.606Z,6.23
2019-03-06T05:42:36.131Z,6.22
2019-03-06T05:47:54.952Z,6.16
2019-03-06T05:53:13.502Z,6.24
2019-03-06T05:58:31.976Z,6.17
2019-03-06T06:03:50.512Z,6.18
2019-03-06T06:09:09.131Z,6.28
2019-03-06T06:14:27.977Z,6.32
2019-03-06T06:19:46.661Z,6.30
2019-03-06T06:25:05.981Z,6.54
2019-03-06T06:30:24.724Z,6.51
2019-03-06T06:35:43.331Z,6.51
2019-03-06T06:41:01.863Z,6.56
2019-03-06T06:46:20.407Z,6.65
2019-03-06T06:52:10.640Z,6.74
2019-03-06T06:57:40.884Z,6.83
2019-03-06T07:03:29.106Z,6.82
2019-03-06T07:08:49.654Z,6.90
2019-03-06T07:14:09.900Z,6.96
2019-03-06T07:19:30.080Z,7.06
2019-03-06T07:24:52.931Z,7.16
2019-03-06T07:30:26.515Z,7.31
2019-03-06T07:36:00.270Z,7.46
2019-03-06T07:41:32.747Z,7.54
2019-03-06T07:46:53.114Z,7.66
2019-03-06T07:52:16.480Z,7.78
2019-03-06T07:57:43.821Z,7.99
2019-03-06T08:03:05.250Z,8.29
2019-03-06T08:08:23.751Z,9.15
2019-03-06T08:13:43.881Z,9.19
2019-03-06T08:19:07.081Z,9.69
2019-03-06T08:24:30.775Z,9.34
2019-03-06T08:29:49.428Z,9.42
2019-03-06T08:35:10.774Z,9.86
2019-03-06T08:40:29.246Z,10.07
2019-03-06T08:46:07.754Z,10.19
2019-03-06T08:51:28.011Z,10.35
2019-03-06T08:57:04.493Z,10.50
2019-03-06T09:02:29.418Z,10.58
2019-03-06T09:08:02.234Z,11.32
2019-03-06T09:13:28.491Z,11.38
2019-03-06T09:18:52.207Z,11.49
2019-03-06T09:24:15.461Z,12.01
2019-03-06T09:29:38.117Z,11.70
2019-03-06T09:35:16.161Z,10.96
2019-03-06T09:40:36.434Z,10.68
2019-03-06T09:46:05.233Z,10.97
2019-03-06T09:51:32.951Z,11.01
2019-03-06T09:56:53.213Z,11.51
2019-03-06T10:02:19.618Z,11.79
2019-03-06T10:07:39.894Z,12.05
2019-03-06T10:13:06.237Z,11.90
2019-03-06T10:18:30.041Z,12.35
2019-03-06T10:23:49.055Z,12.40
2019-03-06T10:29:08.277Z,12.61
2019-03-06T10:34:26.903Z,12.76
2019-03-06T10:39:45.755Z,12.94
2019-03-06T10:45:06.177Z,13.26
2019-03-06T10:50:28.254Z,13.28
2019-03-06T10:55:45.437Z,12.97
2019-03-06T11:01:04.941Z,13.52
2019-03-06T11:06:23.554Z,13.56
2019-03-06T11:11:42.173Z,13.95
2019-03-06T11:17:00.998Z,13.68
2019-03-06T11:22:19.787Z,13.42
2019-03-06T11:27:38.394Z,13.16
2019-03-06T11:32:57.217Z,13.35
2019-03-06T11:38:15.939Z,13.25
2019-03-06T11:43:34.556Z,13.87
2019-03-06T11:48:53.450Z,13.89
2019-03-06T11:54:12.241Z,13.86
2019-03-06T11:59:30.826Z,13.63
2019-03-06T12:04:49.452Z,13.78
2019-03-06T12:10:10.320Z,13.86
2019-03-06T12:15:29.544Z,14.24
2019-03-06T12:20:49.477Z,13.94
2019-03-06T12:26:08.658Z,13.85
2019-03-06T12:31:27.221Z,13.74
2019-03-06T12:36:45.863Z,13.73
2019-03-06T12:42:13.785Z,13.49
2019-03-06T12:47:25.122Z,13.04
2019-03-06T12:52:43.662Z,12.82
2019-03-06T12:58:02.376Z,12.73
2019-03-06T13:03:20.993Z,12.83
2019-03-06T13:08:49.571Z,13.03
2019-03-06T13:13:59.951Z,13.12
2019-03-06T13:19:18.637Z,12.93
2019-03-06T13:24:37.251Z,13.04
2019-03-06T13:29:55.788Z,13.06
2019-03-06T13:35:14.882Z,13.19
2019-03-06T13:40:33.525Z,13.09
2019-03-06T13:45:52.299Z,13.08
2019-03-06T13:51:10.911Z,13.13
2019-03-06T13:56:31.189Z,12.98
2019-03-06T14:01:49.732Z,12.99
2019-03-06T14:07:08.519Z,12.75
2019-03-06T14:12:27.150Z,12.50
2019-03-06T14:17:45.937Z,12.43
2019-03-06T14:23:04.654Z,12.23
2019-03-06T14:28:23.298Z,12.15
2019-03-06T14:33:41.907Z,11.69
2019-03-06T14:39:00.531Z,11.31
2019-03-06T14:44:19.170Z,11.20
2019-03-06T14:49:38.820Z,10.94
2019-03-06T14:54:57.447Z,10.62
2019-03-06T15:00:20.134Z,10.29
2019-03-06T15:05:46.876Z,10.35
2019-03-06T15:10:59.282Z,10.35
2019-03-06T15:16:19.507Z,10.47
2019-03-06T15:21:38.153Z,10.51
2019-03-06T15:26:56.854Z,10.46
2019-03-06T15:32:15.575Z,10.46
2019-03-06T15:37:34.530Z,10.46
2019-03-06T15:42:53.250Z,10.18
2019-03-06T15:48:11.901Z,9.94
2019-03-06T15:53:30.534Z,9.93
2019-03-06T15:58:51.419Z,9.97
2019-03-06T16:04:10.255Z,10.05
2019-03-06T16:09:28.915Z,9.94
2019-03-06T16:14:49.555Z,9.91
2019-03-06T16:20:15.080Z,9.80
2019-03-06T16:25:37.919Z,9.71
2019-03-06T16:30:54.374Z,9.65
2019-03-06T16:36:13.030Z,9.49
2019-03-06T16:41:32.029Z,9.55
2019-03-06T16:46:50.669Z,9.41
2019-03-06T16:52:09.386Z,9.40
2019-03-06T16:57:27.978Z,9.33
2019-03-06T17:02:46.885Z,9.47
2019-03-06T17:08:28.768Z,9.44
2019-03-06T17:13:36.998Z,9.35
2019-03-06T17:18:56.592Z,9.36
2019-03-06T17:24:16.660Z,9.37
2019-03-06T17:29:35.383Z,9.29
2019-03-06T17:34:54.055Z,9.49
2019-03-06T17:40:13.972Z,9.29
2019-03-06T17:45:33.063Z,9.35
2019-03-06T17:50:54.007Z,9.26
2019-03-06T17:56:13.725Z,9.29
2019-03-06T18:01:32.345Z,9.20
2019-03-06T18:06:51.243Z,9.36
2019-03-06T18:12:16.046Z,9.36
2019-03-06T18:17:35.517Z,9.23
2019-03-06T18:23:03.929Z,9.40
2019-03-06T18:28:22.622Z,9.35
2019-03-06T18:33:41.275Z,9.23
2019-03-06T18:39:00.196Z,9.21
2019-03-06T18:44:18.847Z,9.30
2019-03-06T18:49:37.465Z,9.27
2019-03-06T18:54:56.004Z,9.28
2019-03-06T19:00:33.485Z,9.34
2019-03-06T19:05:51.831Z,9.35
2019-03-06T19:11:16.890Z,9.36
2019-03-06T19:16:31.181Z,9.44
2019-03-06T19:21:49.821Z,9.52
2019-03-06T19:27:10.156Z,9.51
2019-03-06T19:32:28.792Z,9.60
2019-03-06T19:37:47.540Z,9.65
2019-03-06T19:43:06.182Z,9.64
2019-03-06T19:48:25.983Z,9.63
2019-03-06T19:53:44.840Z,9.64
2019-03-06T19:59:03.543Z,9.55
2019-03-06T20:04:22.400Z,9.57
2019-03-06T20:09:43.811Z,9.55
2019-03-06T20:15:02.482Z,9.49
2019-03-06T20:20:21.196Z,9.45
2019-03-06T20:25:39.834Z,9.41
2019-03-06T20:30:58.507Z,9.41
2019-03-06T20:36:17.195Z,9.35
2019-03-06T20:41:36.355Z,9.37
2019-03-06T20:46:55.069Z,9.35
2019-03-06T20:52:13.559Z,9.40
2019-03-06T20:57:32.145Z,9.38
2019-03-06T21:02:50.831Z,9.28
2019-03-06T21:08:09.477Z,9.28
2019-03-06T21:13:28.607Z,9.32
2019-03-06T21:18:47.289Z,9.28
2019-03-06T21:24:05.926Z,9.28
2019-03-06T21:29:25.918Z,9.23
2019-03-06T21:34:44.398Z,9.26
2019-03-06T21:40:03.044Z,9.19
2019-03-06T21:45:21.962Z,9.22
2019-03-06T21:50:40.656Z,9.24
2019-03-06T21:55:59.372Z,9.25
2019-03-06T22:01:19.604Z,9.27
2019-03-06T22:06:38.143Z,9.29
2019-03-06T22:11:56.707Z,9.31
2019-03-06T22:17:15.260Z,9.26
2019-03-06T22:22:35.516Z,9.26
2019-03-06T22:27:54.744Z,9.24
2019-03-06T22:33:13.467Z,9.22
2019-03-06T22:38:32.160Z,9.23
2019-03-06T22:43:52.513Z,9.20
2019-03-06T22:49:11.065Z,9.20
2019-03-06T22:54:29.979Z,9.18
2019-03-06T22:59:48.619Z,9.27
2019-03-06T23:05:08.330Z,9.13
2019-03-06T23:10:26.939Z,9.17
2019-03-06T23:15:45.582Z,9.13
2019-03-06T23:21:04.244Z,9.12
2019-03-06T23:26:22.941Z,9.06
2019-03-06T23:31:41.720Z,9.09
2019-03-06T23:37:00.343Z,9.03
2019-03-06T23:42:19.035Z,9.10
2019-03-06T23:47:37.652Z,9.14
2019-03-06T23:53:06.616Z,9.19
2019-03-06T23:58:25.112Z,9.18
